Home > Products > Valid Products > TAF

000
FTUS42 KGSP 222104 AAA
TAFCLT
TAF AMD
KCLT 222104Z 2221/2318 17006KT P6SM SCT250
     FM230300 06003KT P6SM BKN120
     FM230900 06003KT P6SM OVC050
     FM231400 05005KT P6SM -RA OVC015
     FM231600 05005KT 5SM RA BR OVC008=



000
FTUS42 KGSP 222104 AAA
TAFCLT
TAF AMD
KCLT 222104Z 2221/2318 17006KT P6SM SCT250
     FM230300 06003KT P6SM BKN120
     FM230900 06003KT P6SM OVC050
     FM231400 05005KT P6SM -RA OVC015
     FM231600 05005KT 5SM RA BR OVC008=



000
FTUS42 KGSP 221729
TAFAVL
TAF
KAVL 221729Z 2218/2318 17006KT P6SM FEW250
     FM230200 16003KT P6SM BKN100
     FM231100 16003KT P6SM -RA OVC040
     FM231300 17003KT P6SM -RA OVC020
     FM231500 17004KT 4SM RA BR OVC007=



000
FTUS42 KGSP 221729
TAFGSP
TAF
KGSP 221729Z 2218/2318 13004KT P6SM FEW250
     FM230200 04004KT P6SM BKN100
     FM231100 04007KT P6SM -RA OVC050
     FM231300 04008KT P6SM -RA OVC017
     FM231500 04008KT 5SM RA BR OVC008=



000
FTUS42 KGSP 221729
TAFCLT
TAF
KCLT 221729Z 2218/2318 16004KT P6SM FEW250
     FM230300 06003KT P6SM BKN120
     FM230900 06003KT P6SM OVC050
     FM231400 05005KT P6SM -RA OVC015
     FM231600 05005KT 5SM RA BR OVC008=



000
FTUS42 KGSP 221729
TAFCLT
TAF
KCLT 221729Z 2218/2318 16004KT P6SM FEW250
     FM230300 06003KT P6SM BKN120
     FM230900 06003KT P6SM OVC050
     FM231400 05005KT P6SM -RA OVC015
     FM231600 05005KT 5SM RA BR OVC008=



000
FTUS42 KGSP 221729
TAFAVL
TAF
KAVL 221729Z 2218/2318 17006KT P6SM FEW250
     FM230200 16003KT P6SM BKN100
     FM231100 16003KT P6SM -RA OVC040
     FM231300 17003KT P6SM -RA OVC020
     FM231500 17004KT 4SM RA BR OVC007=



000
FTUS42 KGSP 221455 AAA
TAFCLT
TAF AMD
KCLT 221455Z 2215/2312 16004KT P6SM FEW250
     FM230600 12003KT P6SM BKN050
     FM231000 06006KT P6SM BKN021 OVC035=



000
FTUS42 KGSP 221455 AAA
TAFCLT
TAF AMD
KCLT 221455Z 2215/2312 16004KT P6SM FEW250
     FM230600 12003KT P6SM BKN050
     FM231000 06006KT P6SM BKN021 OVC035=



000
FTUS42 KGSP 221125
TAFGSP
TAF
KGSP 221125Z 2212/2312 03003KT P6SM FEW250
     FM221600 12005KT P6SM FEW200
     FM222300 11003KT P6SM SCT050
     FM230300 09004KT P6SM BKN035
     FM230800 04006KT P6SM -SHRA BKN020 OVC030=



000
FTUS42 KGSP 221125
TAFAVL
TAF
KAVL 221125Z 2212/2312 00000KT P6SM SCT250
     FM221600 16006KT P6SM FEW250
     FM230100 16004KT P6SM SCT025 BKN050=



000
FTUS42 KGSP 221125
TAFCLT
TAF
KCLT 221125Z 2212/2312 06003KT P6SM FEW250
     FM221400 16004KT P6SM FEW200
     FM230600 12003KT P6SM BKN050
     FM231000 06006KT P6SM BKN021 OVC035=



000
FTUS42 KGSP 221125
TAFCLT
TAF
KCLT 221125Z 2212/2312 06003KT P6SM FEW250
     FM221400 16004KT P6SM FEW200
     FM230600 12003KT P6SM BKN050
     FM231000 06006KT P6SM BKN021 OVC035=



000
FTUS42 KGSP 221125
TAFAVL
TAF
KAVL 221125Z 2212/2312 00000KT P6SM SCT250
     FM221600 16006KT P6SM FEW250
     FM230100 16004KT P6SM SCT025 BKN050=



000
FTUS42 KGSP 220850 AAA
TAFCLT
TAF AMD
KCLT 220850Z 2209/2306 08003KT P6SM FEW250
     FM221400 16004KT P6SM FEW150
     FM230400 00000KT P6SM BKN070=



000
FTUS42 KGSP 220850 AAA
TAFCLT
TAF AMD
KCLT 220850Z 2209/2306 08003KT P6SM FEW250
     FM221400 16004KT P6SM FEW150
     FM230400 00000KT P6SM BKN070=



000
FTUS42 KGSP 220539
TAFAVL
TAF
KAVL 220539Z 2206/2306 00000KT P6SM FEW150 SCT250
     FM221600 16006KT P6SM FEW250
     FM230100 00000KT P6SM FEW035 BKN050=



000
FTUS42 KGSP 220539
TAFCLT
TAF
KCLT 220539Z 2206/2306 10005KT P6SM FEW250
     FM221400 16004KT P6SM FEW150
     FM230400 00000KT P6SM BKN070=



000
FTUS42 KGSP 220539
TAFGSP
TAF
KGSP 220539Z 2206/2306 04003KT P6SM FEW250
     FM221600 12005KT P6SM FEW250
     FM222300 11003KT P6SM SCT050
     FM230300 00000KT P6SM BKN035=



000
FTUS42 KGSP 220539
TAFAVL
TAF
KAVL 220539Z 2206/2306 00000KT P6SM FEW150 SCT250
     FM221600 16006KT P6SM FEW250
     FM230100 00000KT P6SM FEW035 BKN050=



000
FTUS42 KGSP 220539
TAFCLT
TAF
KCLT 220539Z 2206/2306 10005KT P6SM FEW250
     FM221400 16004KT P6SM FEW150
     FM230400 00000KT P6SM BKN070=



000
FTUS42 KGSP 212330
TAFAVL
TAF
KAVL 212330Z 2200/2224 00000KT P6SM SKC
     FM221800 17006KT P6SM FEW110 SCT250=



000
FTUS42 KGSP 212330
TAFGSP
TAF
KGSP 212330Z 2200/2224 06003KT P6SM SKC
     FM221900 14005KT P6SM FEW130 SCT250=



000
FTUS42 KGSP 212330
TAFCLT
TAF
KCLT 212330Z 2200/2224 07004KT P6SM SKC
     FM221400 14004KT P6SM FEW250=



000
FTUS42 KGSP 212330
TAFCLT
TAF
KCLT 212330Z 2200/2224 07004KT P6SM SKC
     FM221400 14004KT P6SM FEW250=



000
FTUS42 KGSP 212330
TAFAVL
TAF
KAVL 212330Z 2200/2224 00000KT P6SM SKC
     FM221800 17006KT P6SM FEW110 SCT250=



000
FTUS42 KGSP 212114 AAA
TAFCLT
TAF AMD
KCLT 212114Z 2121/2218 06004KT P6SM SKC
     FM220000 10005KT P6SM FEW250
     FM221500 14004KT P6SM SCT250=



000
FTUS42 KGSP 212114 AAA
TAFCLT
TAF AMD
KCLT 212114Z 2121/2218 06004KT P6SM SKC
     FM220000 10005KT P6SM FEW250
     FM221500 14004KT P6SM SCT250=



000
FTUS42 KGSP 211729
TAFGSP
TAF
KGSP 211729Z 2118/2218 07005KT P6SM SKC
     FM220000 10003KT P6SM SCT250=



000
FTUS42 KGSP 211729
TAFAVL
TAF
KAVL 211729Z 2118/2218 34009KT P6SM FEW250
     FM220000 18003KT P6SM SCT200=



000
FTUS42 KGSP 211729
TAFCLT
TAF
KCLT 211729Z 2118/2218 04007KT P6SM SKC
     FM220000 10005KT P6SM FEW250
     FM221500 14004KT P6SM SCT250=



000
FTUS42 KGSP 211729
TAFCLT
TAF
KCLT 211729Z 2118/2218 04007KT P6SM SKC
     FM220000 10005KT P6SM FEW250
     FM221500 14004KT P6SM SCT250=



000
FTUS42 KGSP 211729
TAFAVL
TAF
KAVL 211729Z 2118/2218 34009KT P6SM FEW250
     FM220000 18003KT P6SM SCT200=



000
FTUS42 KGSP 211455 AAA
TAFCLT
TAF AMD
KCLT 211455Z 2115/2212 36007KT P6SM SCT200
     FM212100 04005KT P6SM SKC
     FM220000 10005KT P6SM FEW250=



000
FTUS42 KGSP 211455 AAA
TAFCLT
TAF AMD
KCLT 211455Z 2115/2212 36007KT P6SM SCT200
     FM212100 04005KT P6SM SKC
     FM220000 10005KT P6SM FEW250=



000
FTUS42 KGSP 211131
TAFAVL
TAF
KAVL 211131Z 2112/2212 34009KT P6SM SCT200
     FM220100 15003KT P6SM FEW250=



000
FTUS42 KGSP 211131
TAFGSP
TAF
KGSP 211131Z 2112/2212 01005KT P6SM SCT200
     FM212000 08005KT P6SM FEW180
     FM220100 00000KT P6SM FEW250=



000
FTUS42 KGSP 211131
TAFCLT
TAF
KCLT 211131Z 2112/2212 34008KT P6SM SCT200
     FM212200 04004KT P6SM SKC
     FM220100 08003KT P6SM FEW250=



000
FTUS42 KGSP 211131
TAFAVL
TAF
KAVL 211131Z 2112/2212 34009KT P6SM SCT200
     FM220100 15003KT P6SM FEW250=



000
FTUS42 KGSP 211131
TAFCLT
TAF
KCLT 211131Z 2112/2212 34008KT P6SM SCT200
     FM212200 04004KT P6SM SKC
     FM220100 08003KT P6SM FEW250=



000
FTUS42 KGSP 210851 AAA
TAFCLT
TAF AMD
KCLT 210851Z 2109/2206 30004KT P6SM SKC
     FM211300 34008KT P6SM FEW180
     FM212200 04004KT P6SM FEW250=



000
FTUS42 KGSP 210851 AAA
TAFCLT
TAF AMD
KCLT 210851Z 2109/2206 30004KT P6SM SKC
     FM211300 34008KT P6SM FEW180
     FM212200 04004KT P6SM FEW250=



000
FTUS42 KGSP 210539
TAFGSP
TAF
KGSP 210539Z 2106/2206 26003KT P6SM FEW250
     FM210900 32003KT P6SM FEW180
     FM211400 02005KT P6SM FEW180
     FM220000 00000KT P6SM FEW250=



000
FTUS42 KGSP 210539
TAFCLT
TAF
KCLT 210539Z 2106/2206 26005KT P6SM SKC
     FM211200 34007KT P6SM FEW180
     FM212200 04004KT P6SM FEW250=



000
FTUS42 KGSP 210539
TAFAVL
TAF
KAVL 210539Z 2106/2206 33006KT P6SM FEW200
     FM212200 01004KT P6SM FEW250=



000
FTUS42 KGSP 210539
TAFCLT
TAF
KCLT 210539Z 2106/2206 26005KT P6SM SKC
     FM211200 34007KT P6SM FEW180
     FM212200 04004KT P6SM FEW250=



000
FTUS42 KGSP 210539
TAFAVL
TAF
KAVL 210539Z 2106/2206 33006KT P6SM FEW200
     FM212200 01004KT P6SM FEW250=



000
FTUS42 KGSP 202321
TAFAVL
TAF
KAVL 202321Z 2100/2124 31005KT P6SM FEW250
     FM210800 35009KT P6SM FEW250
     FM211900 36005KT P6SM FEW250=



000
FTUS42 KGSP 202321
TAFCLT
TAF
KCLT 202321Z 2100/2124 25005KT P6SM FEW250
     FM210800 32004KT P6SM FEW250
     FM211700 02005KT P6SM FEW250=



000
FTUS42 KGSP 202321
TAFGSP
TAF
KGSP 202321Z 2100/2124 24006KT P6SM FEW250
     FM210800 34003KT P6SM FEW250
     FM211600 04004KT P6SM FEW250=



000
FTUS42 KGSP 202321
TAFAVL
TAF
KAVL 202321Z 2100/2124 31005KT P6SM FEW250
     FM210800 35009KT P6SM FEW250
     FM211900 36005KT P6SM FEW250=



000
FTUS42 KGSP 202321
TAFCLT
TAF
KCLT 202321Z 2100/2124 25005KT P6SM FEW250
     FM210800 32004KT P6SM FEW250
     FM211700 02005KT P6SM FEW250=



000
FTUS42 KGSP 202057 AAA
TAFCLT
TAF AMD
KCLT 202057Z 2021/2118 25008KT P6SM FEW250
     FM210600 30004KT P6SM FEW250
     FM211300 03006KT P6SM FEW250=



000
FTUS42 KGSP 202056 AAA
TAFGSP
TAF AMD
KGSP 202056Z 2021/2118 24013G22KT P6SM SKC
     FM202300 24006KT P6SM SKC
     FM210800 31004KT P6SM FEW250
     FM211400 03006KT P6SM FEW250=



000
FTUS42 KGSP 201720
TAFAVL
TAF
KAVL 201720Z 2018/2118 36010KT P6SM SKC
     FM210000 35006KT P6SM FEW250=



000
FTUS42 KGSP 201720
TAFCLT
TAF
KCLT 201720Z 2018/2118 24010G17KT P6SM SKC
     FM202200 25008KT P6SM SKC
     FM210600 30004KT P6SM FEW250
     FM211300 03006KT P6SM FEW250=



000
FTUS42 KGSP 201720
TAFGSP
TAF
KGSP 201720Z 2018/2118 25010KT P6SM SKC
     FM210000 24006KT P6SM SKC
     FM210800 31004KT P6SM FEW250
     FM211400 03006KT P6SM FEW250=



000
FTUS42 KGSP 201720
TAFAVL
TAF
KAVL 201720Z 2018/2118 36010KT P6SM SKC
     FM210000 35006KT P6SM FEW250=



000
FTUS42 KGSP 201720
TAFCLT
TAF
KCLT 201720Z 2018/2118 24010G17KT P6SM SKC
     FM202200 25008KT P6SM SKC
     FM210600 30004KT P6SM FEW250
     FM211300 03006KT P6SM FEW250=



000
FTUS42 KGSP 201459 AAA
TAFCLT
TAF AMD
KCLT 201459Z 2015/2112 25010G17KT P6SM SKC
     FM202200 26009KT P6SM FEW240
     FM210200 29006KT P6SM FEW240
     FM211000 36004KT P6SM FEW250=



000
FTUS42 KGSP 201459 AAA
TAFCLT
TAF AMD
KCLT 201459Z 2015/2112 25010G17KT P6SM SKC
     FM202200 26009KT P6SM FEW240
     FM210200 29006KT P6SM FEW240
     FM211000 36004KT P6SM FEW250=



000
FTUS42 KGSP 201122
TAFGSP
TAF
KGSP 201122Z 2012/2112 26005KT P6SM SKC
     FM201400 24011G18KT P6SM FEW250
     FM202300 24007KT P6SM FEW230
     FM210600 27003KT P6SM FEW230
     FM210800 33003KT P6SM FEW230=



000
FTUS42 KGSP 201122
TAFAVL
TAF
KAVL 201122Z 2012/2112 32005KT P6SM BKN050
     FM201500 30010G17KT P6SM FEW250
     FM202300 32006KT P6SM FEW240=



000
FTUS42 KGSP 201122
TAFCLT
TAF
KCLT 201122Z 2012/2112 25005KT P6SM SKC
     FM201400 25010G17KT P6SM SKC
     FM210200 29004KT P6SM FEW240
     FM211000 36004KT P6SM FEW250=



000
FTUS42 KGSP 201122
TAFCLT
TAF
KCLT 201122Z 2012/2112 25005KT P6SM SKC
     FM201400 25010G17KT P6SM SKC
     FM210200 29004KT P6SM FEW240
     FM211000 36004KT P6SM FEW250=



000
FTUS42 KGSP 201122
TAFAVL
TAF
KAVL 201122Z 2012/2112 32005KT P6SM BKN050
     FM201500 30010G17KT P6SM FEW250
     FM202300 32006KT P6SM FEW240=



000
FTUS42 KGSP 200901 AAA
TAFCLT
TAF AMD
KCLT 200901Z 2009/2106 24008KT P6SM FEW250
     FM201400 24009G18KT P6SM FEW040 SCT250
     FM210300 28004KT P6SM FEW040 SCT250=



000
FTUS42 KGSP 200901 AAA
TAFCLT
TAF AMD
KCLT 200901Z 2009/2106 24008KT P6SM FEW250
     FM201400 24009G18KT P6SM FEW040 SCT250
     FM210300 28004KT P6SM FEW040 SCT250=



000
FTUS42 KGSP 200521
TAFCLT
TAF
KCLT 200521Z 2006/2106 23006KT P6SM FEW250
     FM201400 24009G18KT P6SM FEW040 SCT250
     FM210300 28004KT P6SM FEW040 SCT250=



000
FTUS42 KGSP 200521
TAFGSP
TAF
KGSP 200521Z 2006/2106 22003KT P6SM SKC
     FM201400 24011G19KT P6SM FEW040 SCT250
     FM202300 24007KT P6SM FEW040 SCT250=



000
FTUS42 KGSP 200521
TAFAVL
TAF
KAVL 200521Z 2006/2106 32003KT P6SM FEW030
     FM201300 30010G19KT P6SM FEW030 SCT240
     FM210000 32005KT P6SM FEW030 SCT240=



000
FTUS42 KGSP 200521
TAFCLT
TAF
KCLT 200521Z 2006/2106 23006KT P6SM FEW250
     FM201400 24009G18KT P6SM FEW040 SCT250
     FM210300 28004KT P6SM FEW040 SCT250=



000
FTUS42 KGSP 200521
TAFAVL
TAF
KAVL 200521Z 2006/2106 32003KT P6SM FEW030
     FM201300 30010G19KT P6SM FEW030 SCT240
     FM210000 32005KT P6SM FEW030 SCT240=



000
FTUS42 KGSP 192325
TAFCLT
TAF
KCLT 192325Z 2000/2024 20006KT P6SM SCT160 BKN250
     FM201400 24010KT P6SM SKC=



000
FTUS42 KGSP 192325
TAFAVL
TAF
KAVL 192325Z 2000/2024 19006KT P6SM BKN150
     FM200500 30004KT P6SM FEW180
     FM201500 34010KT P6SM FEW250=



000
FTUS42 KGSP 192325
TAFGSP
TAF
KGSP 192325Z 2000/2024 21005KT P6SM SCT160 BKN250
     FM201600 24009KT P6SM FEW250=



000
FTUS42 KGSP 192325
TAFAVL
TAF
KAVL 192325Z 2000/2024 19006KT P6SM BKN150
     FM200500 30004KT P6SM FEW180
     FM201500 34010KT P6SM FEW250=



000
FTUS42 KGSP 192325
TAFCLT
TAF
KCLT 192325Z 2000/2024 20006KT P6SM SCT160 BKN250
     FM201400 24010KT P6SM SKC=



    US Dept of Commerce
    National Oceanic and Atmospheric Administration
    National Weather Service
    1325 East West Highway
    Silver Spring, MD 20910
    Page Author: NWS Internet Services Team
Disclaimer
Information Quality
Credits
Glossary
Privacy Policy
Freedom of Information Act (FOIA)
About Us
Career Opportunities